Time;durP1;ratioP1;P1;durP2;ratioP2;P2;SDS_P1;SDS_P2;PMS_P1;PMS_P2;Temp;Humidity;BMP_temperature;BMP_pressure;BME280_temperature;BME280_humidity;BME280_pressure;Samples;Min_cycle;Max_cycle;Signal;HPM_P1;HPM_P2
2022/05/20 00:01:02;;;;;;;4.87;2.60;;;;;;;;;;4991954;28;20638;-75
2022/05/20 00:03:38;;;;;;;2.83;2.57;;;;;;;;;;4975558;28;20718;-75
2022/05/20 00:06:04;;;;;;;5.23;2.60;;;;;;;;;;4992935;28;20168;-75
2022/05/20 00:08:29;;;;;;;2.73;2.27;;;;;;;;;;4991699;28;20211;-75
2022/05/20 00:10:56;;;;;;;3.87;2.63;;;;;;;;;;4975417;28;20204;-75
2022/05/20 00:13:23;;;;;;;4.30;2.97;;;;;;;;;;4992782;28;20172;-75
2022/05/20 00:15:49;;;;;;;3.03;2.73;;;;;;;;;;4991797;28;20186;-75
2022/05/20 00:18:15;;;;;;;3.03;2.73;;;;;;;;;;4991571;28;20192;-76
2022/05/20 00:20:41;;;;;;;3.53;2.83;;;;;;;;;;4991744;28;20271;-75
2022/05/20 00:23:07;;;;;;;3.67;2.80;;;;;;;;;;4993409;28;20187;-76
2022/05/20 00:25:48;;;;;;;2.63;2.40;;;;;;;;;;4979196;28;20192;-75
2022/05/20 00:28:16;;;;;;;2.73;2.50;;;;;;;;;;4995035;28;20204;-75
2022/05/20 00:30:42;;;;;;;2.83;2.40;;;;;;;;;;4995192;28;20736;-75
2022/05/20 00:33:08;;;;;;;2.60;2.40;;;;;;;;;;4995029;28;20168;-75
2022/05/20 00:35:35;;;;;;;2.70;2.50;;;;;;;;;;4994874;28;20187;-75
2022/05/20 00:38:01;;;;;;;3.80;2.63;;;;;;;;;;4994887;28;20223;-75
2022/05/20 00:40:28;;;;;;;3.53;2.60;;;;;;;;;;4994807;28;20171;-75
2022/05/20 00:43:13;;;;;;;2.80;2.50;;;;;;;;;;4978580;28;20192;-75
2022/05/20 00:45:39;;;;;;;3.07;2.60;;;;;;;;;;4994745;28;20202;-75
2022/05/20 00:48:06;;;;;;;3.33;2.53;;;;;;;;;;4978681;28;20565;-75
2022/05/20 00:50:32;;;;;;;2.87;2.67;;;;;;;;;;4994407;28;20207;-75
2022/05/20 00:52:58;;;;;;;3.20;2.20;;;;;;;;;;4978381;28;20184;-76
2022/05/20 00:55:26;;;;;;;2.90;2.70;;;;;;;;;;4994529;28;20267;-75
2022/05/20 00:58:00;;;;;;;2.60;2.40;;;;;;;;;;4978317;28;20195;-75
2022/05/20 01:00:28;;;;;;;2.83;2.40;;;;;;;;;;4994776;28;20164;-75
2022/05/20 01:02:55;;;;;;;3.60;2.73;;;;;;;;;;4978032;28;20241;-75
2022/05/20 01:05:48;;;;;;;2.30;2.10;;;;;;;;;;4994256;28;20178;-76
2022/05/20 01:08:17;;;;;;;2.60;2.40;;;;;;;;;;4995526;28;20196;-75
2022/05/20 01:10:43;;;;;;;3.13;2.23;;;;;;;;;;4994230;28;20200;-75
2022/05/20 01:13:10;;;;;;;2.37;2.17;;;;;;;;;;4978245;28;20191;-75
2022/05/20 01:15:36;;;;;;;2.47;2.10;;;;;;;;;;4978393;28;20175;-75
2022/05/20 01:18:03;;;;;;;2.90;2.60;;;;;;;;;;4994476;28;20273;-75
2022/05/20 01:20:31;;;;;;;2.60;2.23;;;;;;;;;;4994036;28;20180;-75
2022/05/20 01:22:57;;;;;;;2.20;1.90;;;;;;;;;;4994165;28;20626;-75
2022/05/20 01:25:23;;;;;;;3.53;2.10;;;;;;;;;;4994221;28;20195;-75
2022/05/20 01:27:49;;;;;;;2.43;2.23;;;;;;;;;;4994187;28;20202;-75
2022/05/20 01:30:20;;;;;;;3.40;3.10;;;;;;;;;;4993944;28;20176;-75
2022/05/20 01:32:46;;;;;;;2.83;2.50;;;;;;;;;;4994915;28;20230;-76
2022/05/20 01:35:15;;;;;;;3.60;2.70;;;;;;;;;;4992943;28;20184;-75
2022/05/20 01:37:41;;;;;;;3.53;2.27;;;;;;;;;;4993793;28;20211;-75
2022/05/20 01:40:08;;;;;;;2.83;2.50;;;;;;;;;;4995037;28;20180;-75
2022/05/20 01:42:57;;;;;;;4.77;3.47;;;;;;;;;;4994722;28;20639;-76
2022/05/20 01:45:32;;;;;;;4.80;2.90;;;;;;;;;;4987340;28;20242;-75
2022/05/20 01:48:10;;;;;;;2.57;2.00;;;;;;;;;;4993949;28;20218;-75
2022/05/20 01:50:44;;;;;;;2.80;2.57;;;;;;;;;;4993367;28;20199;-75
2022/05/20 01:53:28;;;;;;;3.10;2.60;;;;;;;;;;4993636;28;20171;-75
2022/05/20 01:55:54;;;;;;;3.30;3.00;;;;;;;;;;4993427;28;20283;-75
2022/05/20 01:58:27;;;;;;;2.50;2.30;;;;;;;;;;4993487;28;20627;-76
2022/05/20 02:00:55;;;;;;;2.50;2.30;;;;;;;;;;4994516;28;20548;-75
2022/05/20 02:03:58;;;;;;;2.80;2.50;;;;;;;;;;4994254;28;20195;-75
2022/05/20 02:06:28;;;;;;;2.93;2.63;;;;;;;;;;4934124;29;20727;-75
2022/05/20 02:08:59;;;;;;;4.80;3.10;;;;;;;;;;4996099;28;20197;-75
2022/05/20 02:11:32;;;;;;;3.23;2.80;;;;;;;;;;4977166;28;20674;-75
2022/05/20 02:14:04;;;;;;;2.87;2.67;;;;;;;;;;4992920;28;20179;-75
2022/05/20 02:16:35;;;;;;;3.30;2.80;;;;;;;;;;4994202;28;20172;-75
2022/05/20 02:19:04;;;;;;;2.93;2.70;;;;;;;;;;4993065;28;20180;-75
2022/05/20 02:21:32;;;;;;;2.40;2.20;;;;;;;;;;4993136;28;20180;-75
2022/05/20 02:24:02;;;;;;;4.73;2.93;;;;;;;;;;4977000;28;20282;-75
2022/05/20 02:26:30;;;;;;;3.63;3.20;;;;;;;;;;4993056;28;20180;-75
2022/05/20 02:29:01;;;;;;;3.40;3.10;;;;;;;;;;4977005;28;20207;-75
2022/05/20 02:31:36;;;;;;;2.90;2.70;;;;;;;;;;4992866;28;20191;-75
2022/05/20 02:34:02;;;;;;;4.07;2.80;;;;;;;;;;4992566;28;20185;-75
2022/05/20 02:36:32;;;;;;;3.00;2.73;;;;;;;;;;4992543;28;20207;-75
2022/05/20 02:38:58;;;;;;;4.60;3.00;;;;;;;;;;4992800;28;20191;-75
2022/05/20 02:41:25;;;;;;;2.70;2.50;;;;;;;;;;4976411;28;20578;-75
2022/05/20 02:43:51;;;;;;;2.33;2.10;;;;;;;;;;4992721;28;20697;-75
2022/05/20 02:46:17;;;;;;;3.43;2.47;;;;;;;;;;4992779;28;20271;-75
2022/05/20 02:48:43;;;;;;;3.10;2.80;;;;;;;;;;4992310;28;20187;-75
2022/05/20 02:51:09;;;;;;;3.33;2.80;;;;;;;;;;4976483;28;20211;-75
2022/05/20 02:53:35;;;;;;;3.37;2.83;;;;;;;;;;4976150;28;20575;-75
2022/05/20 02:56:03;;;;;;;3.17;2.70;;;;;;;;;;4992681;28;20272;-75
2022/05/20 03:04:11;;;;;;;3.00;2.70;;;;;;;;;;4993491;28;20638;-75
2022/05/20 03:06:44;;;;;;;3.17;2.90;;;;;;;;;;4992495;28;20537;-75
2022/05/20 03:09:11;;;;;;;2.87;2.60;;;;;;;;;;4993476;28;20201;-75
2022/05/20 03:11:41;;;;;;;2.90;2.70;;;;;;;;;;4992279;28;20199;-75
2022/05/20 03:14:08;;;;;;;3.30;3.00;;;;;;;;;;4992382;28;20176;-75
2022/05/20 03:16:35;;;;;;;3.73;3.00;;;;;;;;;;4992114;28;20180;-75
2022/05/20 03:19:01;;;;;;;5.00;3.20;;;;;;;;;;4992349;28;20171;-75
2022/05/20 03:21:27;;;;;;;3.20;2.90;;;;;;;;;;4976172;28;20193;-75
2022/05/20 03:23:53;;;;;;;3.27;2.97;;;;;;;;;;4992258;28;20592;-75
2022/05/20 03:26:20;;;;;;;3.77;3.03;;;;;;;;;;4991880;28;20202;-75
2022/05/20 03:28:46;;;;;;;5.40;3.20;;;;;;;;;;4976013;28;20179;-76
2022/05/20 03:31:12;;;;;;;3.60;3.30;;;;;;;;;;4992191;28;20257;-76
2022/05/20 03:33:40;;;;;;;3.90;2.90;;;;;;;;;;4975730;28;20180;-75
2022/05/20 03:36:09;;;;;;;3.30;2.90;;;;;;;;;;4992271;28;20626;-75
2022/05/20 03:38:35;;;;;;;3.07;2.53;;;;;;;;;;5051083;22;20234;-76
2022/05/20 03:41:02;;;;;;;2.70;2.50;;;;;;;;;;5011348;28;20183;-76
2022/05/20 03:43:28;;;;;;;3.30;3.00;;;;;;;;;;5012492;28;20171;-76
2022/05/20 03:45:54;;;;;;;4.40;3.47;;;;;;;;;;4995534;28;20278;-76
2022/05/20 03:48:21;;;;;;;4.30;3.77;;;;;;;;;;5011297;28;20234;-76
2022/05/20 03:50:47;;;;;;;5.80;5.20;;;;;;;;;;5012540;28;20673;-76
2022/05/20 03:53:14;;;;;;;4.57;3.90;;;;;;;;;;5011529;28;20533;-76
2022/05/20 03:55:40;;;;;;;5.10;4.00;;;;;;;;;;5011620;28;20179;-75
2022/05/20 03:58:06;;;;;;;4.20;3.80;;;;;;;;;;4997500;28;20615;-76
2022/05/20 04:01:56;;;;;;;3.80;3.50;;;;;;;;;;5015180;28;20183;-76
2022/05/20 04:03:18;;;;;;;4.27;3.50;;;;;;;;;;5015894;28;20187;-75
2022/05/20 04:05:44;;;;;;;4.00;3.60;;;;;;;;;;4998784;28;20179;-76
2022/05/20 04:08:10;;;;;;;5.73;4.70;;;;;;;;;;5015209;28;20223;-76
2022/05/20 04:10:37;;;;;;;5.33;4.30;;;;;;;;;;4998757;28;20217;-76
2022/05/20 04:13:03;;;;;;;4.40;3.97;;;;;;;;;;5014747;28;20175;-75
2022/05/20 04:15:29;;;;;;;5.47;4.43;;;;;;;;;;5014950;28;20171;-75
2022/05/20 04:17:55;;;;;;;4.00;3.53;;;;;;;;;;5016380;28;20537;-75
2022/05/20 04:20:21;;;;;;;4.03;3.17;;;;;;;;;;4998553;28;20182;-75
2022/05/20 04:22:47;;;;;;;4.87;4.03;;;;;;;;;;4998809;28;20240;-76
2022/05/20 04:25:13;;;;;;;4.00;3.60;;;;;;;;;;5015832;28;20187;-75
2022/05/20 04:27:39;;;;;;;4.33;3.77;;;;;;;;;;4998856;28;20226;-76
2022/05/20 04:30:06;;;;;;;4.00;3.70;;;;;;;;;;5014853;28;20270;-75
2022/05/20 04:32:32;;;;;;;5.60;4.40;;;;;;;;;;4998015;28;20210;-75
2022/05/20 04:34:58;;;;;;;3.70;3.40;;;;;;;;;;5014426;28;20179;-75
2022/05/20 04:37:25;;;;;;;4.57;3.67;;;;;;;;;;4998772;28;20682;-78
2022/05/20 04:39:51;;;;;;;4.40;3.30;;;;;;;;;;5015911;28;20232;-76
2022/05/20 04:47:47;;;;;;;4.83;3.70;;;;;;;;;;5015913;28;20778;-75
2022/05/20 04:50:13;;;;;;;5.33;4.10;;;;;;;;;;5014335;28;20229;-76
2022/05/20 04:52:39;;;;;;;4.20;3.60;;;;;;;;;;5013957;28;20203;-76
2022/05/20 04:55:05;;;;;;;6.07;3.60;;;;;;;;;;4997960;28;20190;-76
2022/05/20 04:57:31;;;;;;;3.87;3.57;;;;;;;;;;4998125;28;20684;-76
2022/05/20 04:59:59;;;;;;;4.53;3.70;;;;;;;;;;5014241;28;20221;-76
2022/05/20 05:02:26;;;;;;;4.67;4.10;;;;;;;;;;5014399;28;20178;-76
2022/05/20 05:05:26;;;;;;;4.40;4.00;;;;;;;;;;4998006;28;20183;-76
2022/05/20 05:07:53;;;;;;;4.30;3.87;;;;;;;;;;5013805;28;20204;-76
2022/05/20 05:10:25;;;;;;;4.73;4.20;;;;;;;;;;5013934;28;20187;-76
2022/05/20 05:12:51;;;;;;;4.60;4.10;;;;;;;;;;5013779;28;20190;-76
2022/05/20 05:15:18;;;;;;;4.30;3.90;;;;;;;;;;4997601;28;20179;-76
2022/05/20 05:20:29;;;;;;;5.10;4.20;;;;;;;;;;5015018;28;20241;-77
2022/05/20 05:22:56;;;;;;;4.70;3.60;;;;;;;;;;5015015;28;20167;-77
2022/05/20 05:25:24;;;;;;;8.47;3.93;;;;;;;;;;4997827;28;20655;-77
2022/05/20 05:27:50;;;;;;;6.17;3.83;;;;;;;;;;5013447;28;20244;-77
2022/05/20 05:30:17;;;;;;;5.93;4.13;;;;;;;;;;5013533;28;20213;-76
2022/05/20 05:32:43;;;;;;;4.30;3.90;;;;;;;;;;5013301;28;20211;-76
2022/05/20 05:35:12;;;;;;;4.83;4.37;;;;;;;;;;5013392;28;20175;-76
2022/05/20 05:37:39;;;;;;;6.40;4.17;;;;;;;;;;5013129;28;20275;-76
2022/05/20 05:40:07;;;;;;;5.23;4.30;;;;;;;;;;5014622;28;20199;-77
2022/05/20 05:42:33;;;;;;;4.63;4.20;;;;;;;;;;5013406;28;20270;-77
2022/05/20 05:45:00;;;;;;;4.83;4.43;;;;;;;;;;5013008;28;20266;-77
2022/05/20 05:47:26;;;;;;;5.00;4.60;;;;;;;;;;5013133;28;20218;-77
2022/05/20 05:49:52;;;;;;;5.03;4.53;;;;;;;;;;5013389;28;20266;-77
2022/05/20 05:52:18;;;;;;;9.87;4.50;;;;;;;;;;5012793;28;20202;-75
2022/05/20 05:54:44;;;;;;;5.90;5.10;;;;;;;;;;5013577;28;20656;-76
2022/05/20 05:57:10;;;;;;;5.40;4.80;;;;;;;;;;4997932;28;20289;-79
2022/05/20 05:59:37;;;;;;;5.83;4.90;;;;;;;;;;4997202;28;20183;-76
2022/05/20 06:02:04;;;;;;;5.67;4.83;;;;;;;;;;4997202;28;20215;-78
2022/05/20 06:04:39;;;;;;;6.20;4.73;;;;;;;;;;4998859;28;20186;-76
2022/05/20 06:07:05;;;;;;;5.33;4.70;;;;;;;;;;4997626;28;20677;-77
2022/05/20 06:09:31;;;;;;;6.23;5.10;;;;;;;;;;5013764;28;20186;-76
2022/05/20 06:11:58;;;;;;;6.47;5.47;;;;;;;;;;5012499;28;20233;-77
2022/05/20 06:14:23;;;;;;;7.37;5.43;;;;;;;;;;4996806;28;20665;-77
2022/05/20 06:16:49;;;;;;;5.90;5.23;;;;;;;;;;4996607;28;20175;-77
2022/05/20 06:19:15;;;;;;;5.67;5.17;;;;;;;;;;5012572;28;20269;-77
2022/05/20 06:21:42;;;;;;;7.73;5.17;;;;;;;;;;4996094;28;20180;-76
2022/05/20 06:24:08;;;;;;;6.30;5.13;;;;;;;;;;4996422;28;20179;-76
2022/05/20 06:26:35;;;;;;;6.57;5.27;;;;;;;;;;5012340;28;20178;-76
2022/05/20 06:29:03;;;;;;;5.80;5.30;;;;;;;;;;5012714;28;20186;-76
2022/05/20 06:31:29;;;;;;;5.97;4.60;;;;;;;;;;4996579;28;20206;-76
2022/05/20 06:33:57;;;;;;;5.87;4.83;;;;;;;;;;5012420;28;20193;-76
2022/05/20 06:41:52;;;;;;;6.23;5.13;;;;;;;;;;5013746;28;20234;-76
2022/05/20 06:44:18;;;;;;;5.60;5.00;;;;;;;;;;5013496;28;20178;-76
2022/05/20 06:46:44;;;;;;;8.50;5.30;;;;;;;;;;4996167;28;20277;-76
2022/05/20 06:49:10;;;;;;;6.57;5.00;;;;;;;;;;4995895;28;20189;-76
2022/05/20 06:51:37;;;;;;;5.57;4.80;;;;;;;;;;4996008;28;20224;-76
2022/05/20 06:54:04;;;;;;;5.67;5.10;;;;;;;;;;4995932;28;20209;-76
2022/05/20 06:56:31;;;;;;;6.07;5.37;;;;;;;;;;5011977;28;20175;-76
2022/05/20 06:58:58;;;;;;;6.83;5.80;;;;;;;;;;5012027;28;20186;-76
2022/05/20 07:01:24;;;;;;;6.20;5.57;;;;;;;;;;5012132;28;20281;-76
2022/05/20 07:04:07;;;;;;;5.73;5.23;;;;;;;;;;4995604;28;20250;-76
2022/05/20 07:06:34;;;;;;;5.93;5.43;;;;;;;;;;4995546;28;20217;-76
2022/05/20 07:09:00;;;;;;;5.80;5.30;;;;;;;;;;5011841;28;20186;-76
2022/05/20 07:11:27;;;;;;;6.70;5.33;;;;;;;;;;5011660;28;20203;-76
2022/05/20 07:13:58;;;;;;;5.97;5.37;;;;;;;;;;5012063;28;20174;-77
2022/05/20 07:16:25;;;;;;;8.03;5.77;;;;;;;;;;5012987;28;20155;-77
2022/05/20 07:18:51;;;;;;;6.57;5.20;;;;;;;;;;5011893;28;20195;-77
2022/05/20 07:21:17;;;;;;;7.30;5.53;;;;;;;;;;4995467;28;20282;-77
2022/05/20 07:23:43;;;;;;;6.67;5.40;;;;;;;;;;4995175;28;20274;-77
2022/05/20 07:26:09;;;;;;;6.17;5.57;;;;;;;;;;5013486;28;20175;-78
2022/05/20 07:28:35;;;;;;;6.20;5.30;;;;;;;;;;4995375;28;20676;-76
2022/05/20 07:31:02;;;;;;;6.33;5.10;;;;;;;;;;5011681;28;20574;-77
2022/05/20 07:33:28;;;;;;;6.50;5.90;;;;;;;;;;5014507;28;20220;-76
2022/05/20 07:35:55;;;;;;;6.20;5.60;;;;;;;;;;5015737;28;20209;-76
2022/05/20 07:38:22;;;;;;;4.13;3.10;;;;;;;;;;5015830;28;20211;-76
2022/05/20 07:40:48;;;;;;;6.83;5.07;;;;;;;;;;5015444;28;20653;-76
2022/05/20 07:43:14;;;;;;;4.77;4.33;;;;;;;;;;4999473;28;20183;-76
2022/05/20 07:45:40;;;;;;;6.77;5.00;;;;;;;;;;4999525;28;20171;-76
2022/05/20 07:48:06;;;;;;;6.67;5.40;;;;;;;;;;5015652;28;20203;-76
2022/05/20 07:50:34;;;;;;;5.43;4.93;;;;;;;;;;5015590;28;20225;-76
2022/05/20 07:55:48;;;;;;;5.10;4.60;;;;;;;;;;5016888;28;20174;-76
2022/05/20 07:58:18;;;;;;;5.90;5.30;;;;;;;;;;5015318;28;20688;-76
2022/05/20 08:00:44;;;;;;;7.37;5.30;;;;;;;;;;5015303;28;20233;-76
2022/05/20 08:03:11;;;;;;;4.30;3.90;;;;;;;;;;5015325;28;20179;-76
2022/05/20 08:05:37;;;;;;;4.30;3.50;;;;;;;;;;4999206;28;20182;-75
2022/05/20 08:08:05;;;;;;;7.33;5.43;;;;;;;;;;5014974;28;20231;-76
2022/05/20 08:10:33;;;;;;;7.10;4.40;;;;;;;;;;5015391;28;20242;-75
2022/05/20 08:12:59;;;;;;;5.80;5.20;;;;;;;;;;5014928;28;20641;-76
2022/05/20 08:15:25;;;;;;;6.10;4.00;;;;;;;;;;4998907;28;20206;-77
2022/05/20 08:17:51;;;;;;;5.80;5.20;;;;;;;;;;5014853;28;20202;-77
2022/05/20 08:20:25;;;;;;;5.70;5.03;;;;;;;;;;5015263;28;20186;-76
2022/05/20 08:22:51;;;;;;;6.70;4.77;;;;;;;;;;5014744;28;20171;-76
2022/05/20 08:25:17;;;;;;;5.43;3.83;;;;;;;;;;5014775;28;20250;-76
2022/05/20 08:27:43;;;;;;;5.23;4.27;;;;;;;;;;5014772;28;20194;-76
2022/05/20 08:30:15;;;;;;;5.87;5.10;;;;;;;;;;4998797;28;20179;-76
2022/05/20 08:32:41;;;;;;;6.10;5.20;;;;;;;;;;5014333;28;20207;-76
2022/05/20 08:35:07;;;;;;;9.37;5.57;;;;;;;;;;5014632;28;20210;-76
2022/05/20 08:37:37;;;;;;;6.03;5.43;;;;;;;;;;5014593;28;20234;-76
2022/05/20 08:40:03;;;;;;;5.73;5.20;;;;;;;;;;5014878;28;20183;-77
2022/05/20 08:42:31;;;;;;;5.47;4.93;;;;;;;;;;5014298;28;20194;-76
2022/05/20 08:44:57;;;;;;;6.27;5.17;;;;;;;;;;5014049;28;20179;-77
2022/05/20 08:47:23;;;;;;;5.70;5.20;;;;;;;;;;5014560;28;20203;-77
2022/05/20 08:49:55;;;;;;;7.17;5.30;;;;;;;;;;5014322;28;20187;-76
2022/05/20 08:52:21;;;;;;;6.07;5.40;;;;;;;;;;4998105;28;20232;-77
2022/05/20 08:54:47;;;;;;;5.13;4.63;;;;;;;;;;5015501;28;20557;-76
2022/05/20 08:57:24;;;;;;;5.27;4.77;;;;;;;;;;5014352;28;20215;-76
2022/05/20 08:59:51;;;;;;;6.20;5.53;;;;;;;;;;4998042;28;20256;-77
2022/05/20 09:02:17;;;;;;;5.63;5.00;;;;;;;;;;5014091;28;20603;-77
2022/05/20 09:05:11;;;;;;;5.35;4.85;;;;;;;;;;4998168;28;20263;-77
2022/05/20 09:07:54;;;;;;;5.28;4.78;;;;;;;;;;5014311;28;20206;-77
2022/05/20 09:10:28;;;;;;;5.38;4.78;;;;;;;;;;5015616;28;20583;-77
2022/05/20 09:13:05;;;;;;;5.97;4.75;;;;;;;;;;5013940;28;20191;-77
2022/05/20 09:15:46;;;;;;;6.00;5.28;;;;;;;;;;5015386;28;20511;-77
2022/05/20 09:18:18;;;;;;;4.80;4.40;;;;;;;;;;5014281;28;20194;-77
2022/05/20 09:20:44;;;;;;;5.88;4.13;;;;;;;;;;5014124;28;20203;-77
2022/05/20 09:23:11;;;;;;;5.95;4.05;;;;;;;;;;5013520;28;20182;-77
2022/05/20 09:25:46;;;;;;;4.70;4.30;;;;;;;;;;4997467;28;20178;-77
2022/05/20 09:28:18;;;;;;;5.00;4.22;;;;;;;;;;5013534;28;20190;-77
2022/05/20 09:30:48;;;;;;;5.00;4.60;;;;;;;;;;5013967;28;20647;-77
2022/05/20 09:33:33;;;;;;;5.15;4.50;;;;;;;;;;5013550;28;20638;-77
2022/05/20 09:36:01;;;;;;;6.13;4.10;;;;;;;;;;4997259;28;20198;-77
2022/05/20 09:38:41;;;;;;;5.57;4.80;;;;;;;;;;5011193;23;20257;-78
2022/05/20 09:41:16;;;;;;;4.65;4.20;;;;;;;;;;4995179;28;20179;-77
2022/05/20 09:43:44;;;;;;;6.30;4.28;;;;;;;;;;4993643;28;20186;-77
2022/05/20 09:46:27;;;;;;;5.47;4.50;;;;;;;;;;4993914;28;20179;-77
2022/05/20 09:48:59;;;;;;;7.03;4.60;;;;;;;;;;4993654;28;20202;-76
2022/05/20 09:51:31;;;;;;;4.75;4.15;;;;;;;;;;4994777;28;20196;-76
2022/05/20 09:54:05;;;;;;;5.22;4.70;;;;;;;;;;4993514;28;20198;-76
2022/05/20 09:56:33;;;;;;;4.05;3.72;;;;;;;;;;4994060;28;20235;-76
2022/05/20 09:59:12;;;;;;;4.95;4.00;;;;;;;;;;4977614;28;20204;-76
2022/05/20 10:01:40;;;;;;;4.40;4.00;;;;;;;;;;4993692;28;20253;-76
2022/05/20 10:04:12;;;;;;;5.25;4.30;;;;;;;;;;4977304;28;20215;-76
2022/05/20 10:06:41;;;;;;;4.32;3.53;;;;;;;;;;4993313;28;20263;-76
2022/05/20 10:09:16;;;;;;;5.75;3.97;;;;;;;;;;4977092;28;20196;-76
2022/05/20 10:11:49;;;;;;;4.55;3.83;;;;;;;;;;4994308;28;20199;-76
2022/05/20 10:14:37;;;;;;;3.70;3.40;;;;;;;;;;4993488;28;20581;-77
2022/05/20 10:17:10;;;;;;;4.55;3.63;;;;;;;;;;4994426;28;20188;-77
2022/05/20 10:19:55;;;;;;;3.90;3.60;;;;;;;;;;4993054;28;20550;-77
2022/05/20 10:22:44;;;;;;;4.60;3.47;;;;;;;;;;4992896;28;20172;-76
2022/05/20 10:25:17;;;;;;;4.40;4.00;;;;;;;;;;4992914;28;20254;-76
2022/05/20 10:27:49;;;;;;;4.30;3.65;;;;;;;;;;4994085;28;20218;-76
2022/05/20 10:33:15;;;;;;;4.20;3.60;;;;;;;;;;4994609;28;20254;-76
2022/05/20 10:35:53;;;;;;;4.15;3.40;;;;;;;;;;4992971;28;20151;-76
2022/05/20 10:38:19;;;;;;;3.83;3.42;;;;;;;;;;4992605;28;20207;-76
2022/05/20 10:41:04;;;;;;;4.60;4.20;;;;;;;;;;4992901;28;20215;-77
2022/05/20 10:48:34;;;;;;;5.68;3.78;;;;;;;;;;4993644;28;20635;-77
2022/05/20 10:49:17;;;;;;;4.50;4.00;;;;;;;;;;4993794;28;20588;-77
2022/05/20 10:51:43;;;;;;;4.82;4.43;;;;;;;;;;4992205;28;20199;-77
2022/05/20 10:54:12;;;;;;;5.05;4.00;;;;;;;;;;4992631;28;20634;-77
2022/05/20 10:56:58;;;;;;;5.00;4.60;;;;;;;;;;4993718;28;20176;-77
2022/05/20 10:59:43;;;;;;;5.53;4.95;;;;;;;;;;4992614;28;20326;-77
2022/05/20 11:02:28;;;;;;;6.68;4.72;;;;;;;;;;4992430;28;20186;-74
2022/05/20 11:05:31;;;;;;;5.40;4.80;;;;;;;;;;4992270;28;20179;-75
2022/05/20 11:08:33;;;;;;;6.82;4.72;;;;;;;;;;4992147;28;20205;-74
2022/05/20 11:11:28;;;;;;;5.00;4.22;;;;;;;;;;4936195;29;20239;-75
2022/05/20 11:13:58;;;;;;;4.97;4.55;;;;;;;;;;4971309;28;20188;-74
2022/05/20 11:16:36;;;;;;;6.15;4.30;;;;;;;;;;4992288;28;20179;-74
2022/05/20 11:19:31;;;;;;;4.60;4.20;;;;;;;;;;4992340;28;20215;-74
2022/05/20 11:22:16;;;;;;;6.18;4.32;;;;;;;;;;4941267;28;20181;-74
2022/05/20 11:24:52;;;;;;;5.97;4.28;;;;;;;;;;4992134;28;20167;-75
2022/05/20 11:27:36;;;;;;;5.63;4.10;;;;;;;;;;4991983;28;20199;-75
2022/05/20 11:30:05;;;;;;;5.07;3.80;;;;;;;;;;4993211;28;20611;-74
2022/05/20 11:32:32;;;;;;;4.03;3.63;;;;;;;;;;4992022;28;20572;-74
2022/05/20 11:34:59;;;;;;;4.30;3.88;;;;;;;;;;4991948;28;20182;-74
2022/05/20 11:37:43;;;;;;;5.38;4.05;;;;;;;;;;4992979;28;20191;-77
2022/05/20 11:40:27;;;;;;;4.13;3.70;;;;;;;;;;4992424;28;20167;-77
2022/05/20 11:43:02;;;;;;;5.40;3.92;;;;;;;;;;4991674;28;20210;-77
2022/05/20 11:45:37;;;;;;;4.00;3.60;;;;;;;;;;4993182;28;20668;-77
2022/05/20 11:48:27;;;;;;;5.70;3.65;;;;;;;;;;4992116;28;20615;-77
2022/05/20 11:51:02;;;;;;;7.25;4.20;;;;;;;;;;4964819;28;20326;-77
2022/05/20 11:53:30;;;;;;;5.95;3.70;;;;;;;;;;4991975;28;20240;-77
2022/05/20 11:56:00;;;;;;;4.05;3.50;;;;;;;;;;4991765;28;20646;-77
2022/05/20 11:58:35;;;;;;;4.45;4.05;;;;;;;;;;4991626;28;20211;-77
2022/05/20 12:01:02;;;;;;;4.88;4.18;;;;;;;;;;4991681;28;20171;-77
2022/05/20 12:04:06;;;;;;;7.47;4.07;;;;;;;;;;4991337;28;20259;-77
2022/05/20 12:06:16;;;;;;;6.18;4.28;;;;;;;;;;4992804;28;20175;-77
2022/05/20 12:08:44;;;;;;;7.05;3.95;;;;;;;;;;4991757;28;20215;-77
2022/05/20 12:11:22;;;;;;;6.00;4.00;;;;;;;;;;4991805;28;20199;-77
2022/05/20 12:13:58;;;;;;;6.10;3.95;;;;;;;;;;4991471;28;20172;-77
2022/05/20 12:16:24;;;;;;;5.13;3.92;;;;;;;;;;4991714;28;20167;-77
2022/05/20 12:24:30;;;;;;;5.05;4.10;;;;;;;;;;4996515;28;20206;-77
2022/05/20 12:26:57;;;;;;;7.05;4.55;;;;;;;;;;4995164;28;20203;-77
2022/05/20 12:29:35;;;;;;;5.30;4.30;;;;;;;;;;4995416;28;20202;-77
2022/05/20 12:32:29;;;;;;;4.70;3.80;;;;;;;;;;4994729;28;20196;-77
2022/05/20 12:34:55;;;;;;;4.80;4.18;;;;;;;;;;4973562;28;20207;-77
2022/05/20 12:37:40;;;;;;;5.28;4.18;;;;;;;;;;4994918;28;20243;-77
2022/05/20 12:40:15;;;;;;;6.65;4.82;;;;;;;;;;4994935;28;20156;-77
2022/05/20 12:42:46;;;;;;;5.68;4.75;;;;;;;;;;4994696;28;20191;-77
2022/05/20 12:45:12;;;;;;;5.57;4.22;;;;;;;;;;4995237;28;20164;-77
2022/05/20 12:47:39;;;;;;;5.25;4.43;;;;;;;;;;4995145;28;20191;-77
2022/05/20 12:50:07;;;;;;;5.68;4.20;;;;;;;;;;4979010;28;20179;-77
2022/05/20 12:52:35;;;;;;;5.28;4.80;;;;;;;;;;4994540;28;20211;-77
2022/05/20 12:55:12;;;;;;;7.53;4.40;;;;;;;;;;4978521;28;20176;-77
2022/05/20 12:57:47;;;;;;;7.78;4.80;;;;;;;;;;4994516;28;20203;-77
2022/05/20 13:00:15;;;;;;;8.40;4.60;;;;;;;;;;4994901;28;20174;-77
2022/05/20 13:02:46;;;;;;;8.18;4.47;;;;;;;;;;4994282;28;20191;-76
2022/05/20 13:05:49;;;;;;;5.47;4.68;;;;;;;;;;4995362;28;20180;-76
2022/05/20 13:08:17;;;;;;;8.57;4.88;;;;;;;;;;4994660;28;20674;-76
2022/05/20 13:10:44;;;;;;;6.07;4.57;;;;;;;;;;4994366;28;20183;-76
2022/05/20 13:13:17;;;;;;;6.03;4.50;;;;;;;;;;4994083;28;20211;-77
2022/05/20 13:15:46;;;;;;;7.13;4.90;;;;;;;;;;4994260;28;20172;-77
2022/05/20 13:18:15;;;;;;;7.07;4.60;;;;;;;;;;4994498;28;20278;-77
2022/05/20 13:20:41;;;;;;;6.05;4.55;;;;;;;;;;4995365;28;20164;-76
2022/05/20 13:23:08;;;;;;;5.47;4.80;;;;;;;;;;4993943;28;20569;-76
2022/05/20 13:25:35;;;;;;;5.20;4.70;;;;;;;;;;4995321;28;20164;-76
2022/05/20 13:28:02;;;;;;;6.50;4.78;;;;;;;;;;4978672;28;20290;-76
2022/05/20 13:30:30;;;;;;;8.38;4.63;;;;;;;;;;4992930;28;20195;-76
2022/05/20 13:33:04;;;;;;;6.15;4.70;;;;;;;;;;4994889;28;20199;-76
2022/05/20 13:35:31;;;;;;;4.65;4.25;;;;;;;;;;4978048;28;20546;-76
2022/05/20 13:37:59;;;;;;;5.13;4.60;;;;;;;;;;4977881;28;20223;-76
2022/05/20 13:40:33;;;;;;;4.85;4.47;;;;;;;;;;4993812;28;20262;-76
2022/05/20 13:43:00;;;;;;;5.03;4.50;;;;;;;;;;4993969;28;20170;-76
2022/05/20 13:51:03;;;;;;;5.03;4.20;;;;;;;;;;4995138;28;20175;-77
2022/05/20 13:53:30;;;;;;;10.98;4.82;;;;;;;;;;4994754;28;20176;-76
2022/05/20 13:55:57;;;;;;;5.90;4.93;;;;;;;;;;4993404;28;20194;-75
2022/05/20 13:58:23;;;;;;;6.35;4.63;;;;;;;;;;4994542;28;20195;-76
2022/05/20 14:00:50;;;;;;;5.03;4.32;;;;;;;;;;4993925;28;20186;-76
2022/05/20 14:03:39;;;;;;;6.75;5.03;;;;;;;;;;4978606;28;20175;-78
2022/05/20 14:06:10;;;;;;;6.75;4.75;;;;;;;;;;4993417;28;20210;-78
2022/05/20 14:08:43;;;;;;;7.10;4.93;;;;;;;;;;4993351;28;20192;-77
2022/05/20 14:11:12;;;;;;;5.53;4.78;;;;;;;;;;4993228;28;20200;-76
2022/05/20 14:13:39;;;;;;;7.18;5.22;;;;;;;;;;4993094;28;20720;-76
2022/05/20 14:16:11;;;;;;;6.30;5.70;;;;;;;;;;4993134;28;20249;-76
2022/05/20 14:18:39;;;;;;;6.68;5.35;;;;;;;;;;4994337;28;20756;-76
2022/05/20 14:21:11;;;;;;;7.55;5.53;;;;;;;;;;4992962;28;20180;-76
2022/05/20 14:23:43;;;;;;;6.28;5.28;;;;;;;;;;4992983;28;20247;-76
2022/05/20 14:26:21;;;;;;;7.53;5.65;;;;;;;;;;4992947;28;20544;-76
2022/05/20 14:28:52;;;;;;;8.85;5.60;;;;;;;;;;4993040;28;20192;-76
2022/05/20 14:31:38;;;;;;;8.55;5.88;;;;;;;;;;4993038;28;20191;-76
2022/05/20 14:34:08;;;;;;;10.15;6.15;;;;;;;;;;4992780;28;20164;-75
2022/05/20 14:36:35;;;;;;;7.63;6.30;;;;;;;;;;4993276;28;20176;-77
2022/05/20 14:39:01;;;;;;;8.27;6.40;;;;;;;;;;4992923;28;20215;-78
2022/05/20 14:41:29;;;;;;;9.10;6.43;;;;;;;;;;4976246;28;20180;-76
2022/05/20 14:43:58;;;;;;;8.05;6.43;;;;;;;;;;4992784;28;20267;-76
2022/05/20 14:49:22;;;;;;;7.63;6.28;;;;;;;;;;4993947;28;20213;-76
2022/05/20 14:51:55;;;;;;;9.05;6.68;;;;;;;;;;4992515;28;20204;-76
2022/05/20 14:54:22;;;;;;;7.03;6.38;;;;;;;;;;4992403;28;20674;-77
2022/05/20 14:56:50;;;;;;;7.13;6.25;;;;;;;;;;4992421;28;20180;-77
2022/05/20 14:59:29;;;;;;;10.10;5.95;;;;;;;;;;4976278;28;20578;-76
2022/05/20 15:01:56;;;;;;;6.85;5.53;;;;;;;;;;4992183;28;20171;-76
2022/05/20 15:04:47;;;;;;;6.85;5.90;;;;;;;;;;4992081;28;20175;-77
2022/05/20 15:07:13;;;;;;;7.05;5.28;;;;;;;;;;4992237;28;20294;-76
2022/05/20 15:09:39;;;;;;;6.95;5.28;;;;;;;;;;4976403;28;20278;-76
2022/05/20 15:12:07;;;;;;;7.00;5.80;;;;;;;;;;4992280;28;20427;-77
2022/05/20 15:14:33;;;;;;;8.48;6.00;;;;;;;;;;4976478;28;20549;-76
2022/05/20 15:16:59;;;;;;;7.45;5.60;;;;;;;;;;4992413;28;20177;-77
2022/05/20 15:19:26;;;;;;;10.35;6.25;;;;;;;;;;4976384;28;20176;-77
2022/05/20 15:21:54;;;;;;;7.65;6.10;;;;;;;;;;4976129;28;20645;-77
2022/05/20 15:24:22;;;;;;;9.55;6.30;;;;;;;;;;4976636;28;20203;-77
2022/05/20 15:26:49;;;;;;;8.80;6.32;;;;;;;;;;4992346;28;20183;-77
2022/05/20 15:29:15;;;;;;;7.93;6.20;;;;;;;;;;4975901;28;20195;-77
2022/05/20 15:34:52;;;;;;;7.78;6.25;;;;;;;;;;4992266;28;20259;-76
2022/05/20 15:39:50;;;;;;;8.43;6.50;;;;;;;;;;4991736;28;20207;-77
2022/05/20 15:42:18;;;;;;;8.75;6.35;;;;;;;;;;4992997;28;20263;-77
2022/05/20 15:44:44;;;;;;;7.00;5.90;;;;;;;;;;5008554;28;20179;-77
2022/05/20 15:47:11;;;;;;;10.52;6.50;;;;;;;;;;5008216;28;20176;-77
2022/05/20 15:49:37;;;;;;;8.00;6.78;;;;;;;;;;4973688;28;20178;-77